Calhan, Colorado
Current Conditions -  °F | °C
As of 8:14 AM on Sunday 21 Dec 2014 (Local Time) from KFLY Reporting Station
Scattered Clouds Scattered Clouds  
Wind Chill: 32°   Ceiling: Unl
Heat Index: 32°   Visibility: 10mi
Dew Point: 17°   Wind: 0mph
Humidity: 52%   Direction: NA
Pressure: 29.76"   Gusts: NA
Location:  39.04°N, 104.3°W
Report Text: KFLY 211514Z AUTO 00000KT 10SM SCT110 00/M09 A2976 RMK AO2 T00021086
Loading
Personal Weather Stations






























Interactive Weather Map New forecast layout! Learn more

10-Day Weather Forecast

Advertisements
Track Severe Weather on mobile